This is the latest recevied weather packets stored in our database for station/object E22ZMG-4. If no packets are shown the sender has not sent any weather packets the latest 10 day(s).
| Time | Temp. | Humidity | Pressure | Rain* | Wind** | Luminosity | Snow |
|---|---|---|---|---|---|---|---|
| 1777359194 | 26.11° C | 43% | 972 hPa | - | - | 0 W/m² | - |
| 1777358570 | 26.67° C | 43% | 972 hPa | - | - | 0 W/m² | - |
| 1777357946 | 26.67° C | 43% | 973 hPa | - | - | 0 W/m² | - |
| 1777357322 | 26.67° C | 40% | 973 hPa | - | - | 0 W/m² | - |
| 1777356697 | 26.67° C | 42% | 973 hPa | - | - | 0 W/m² | - |
| 1777356073 | 26.67° C | 43% | 973 hPa | - | - | 0 W/m² | - |
| 1777355448 | 26.67° C | 45% | 974 hPa | - | - | 0 W/m² | - |
| 1777354824 | 27.22° C | 47% | 974 hPa | - | - | 0 W/m² | - |
| 1777354199 | 26.67° C | 51% | 974 hPa | - | - | 0 W/m² | - |
| 1777353575 | 26.67° C | 43% | 974 hPa | - | - | 0 W/m² | - |
| 1777352951 | 27.22° C | 47% | 974 hPa | - | - | 0 W/m² | - |
| 1777352327 | 27.22° C | 49% | 974 hPa | - | - | 0 W/m² | - |
| 1777351702 | 26.11° C | 42% | 975 hPa | - | - | 0 W/m² | - |
| 1777351078 | 26.11° C | 42% | 975 hPa | - | - | 0 W/m² | - |
| 1777350453 | 26.11° C | 41% | 975 hPa | - | - | 0 W/m² | - |
| 1777349829 | 26.67° C | 45% | 975 hPa | - | - | 0 W/m² | - |
| 1777349205 | 27.22° C | 50% | 975 hPa | - | - | 0 W/m² | - |
| 1777348579 | 26.67° C | 40% | 975 hPa | - | - | 0 W/m² | - |
| 1777347954 | 27.22° C | 43% | 975 hPa | - | - | 0 W/m² | - |
| 1777347330 | 27.78° C | 49% | 975 hPa | - | - | 0 W/m² | - |
| 1777346704 | 27.22° C | 46% | 976 hPa | - | - | 0 W/m² | - |
| 1777346079 | 27.22° C | 47% | 975 hPa | - | - | 0 W/m² | - |
| 1777345454 | 27.22° C | 49% | 975 hPa | - | - | 0 W/m² | - |
| 1777344829 | 27.22° C | 46% | 975 hPa | - | - | 0 W/m² | - |
| 1777344205 | 27.22° C | 41% | 975 hPa | - | - | 0 W/m² | - |
* Rain since midnight (hover to see other rain measurements)
** Current wind speed in m/s (hover to see current wind gust speed)